Terminal Aerodrome Forecast
Issued by NWS

Home | Current Version | Previous Version | Text Only | Print | Product List | Glossary On
Versions: 1 2 3 4 5 6 7 8 9 10 11 12
970
FTUS43 KAPX 241250 CCA
TAFAPN
TAF COR
KAPN 241250Z 2413/2512 21006KT P6SM FEW250
     FM250000 23006KT P6SM BKN250
     FM250600 00000KT P6SM BKN070
     FM251000 00000KT P6SM BKN025=

USA.gov is the U.S. government's official web portal to all federal, state and local government web resources and services.